Fairmount Summit — PBNG — position and weather

sailwx.info

Track history (hours):
 
Tides and Currents Weather Stations Pressure Air Temp Water Temp Dewpoint Dewpoint Depression Visibility Wind Speed Wind Dir Waves Ship Positions

Fairmount Summit

Last reported at 2018-Feb-16 22:00 UTC. Time now 2018-Feb-22 20:50 UTC.
Position N 37°45' E 024°15'.

Length 75 m; draft 6.2 m.

Type: Tug. MMSI: 245614000.

Date/timePositionNaut miles runAvg speedWind from/ knotsBaromVisibWave heightAir tempDewpointWater temp
2018-Feb-16 22:00N 37°45' E 024°15'  
2018-Feb-12 07:10N 37°28' E 025°48'1 5.9
2018-Feb-12 06:58N 37°27' E 025°49'2 5.0
2018-Feb-12 06:30N 37°25' E 025°51'2 4.0
2018-Feb-12 06:00N 37°24' E 025°53'  
2018-Feb-07 07:05N 36°13' E 014°45'1 6.8
2018-Feb-07 06:59N 36°13' E 014°44'3 6.7
2018-Feb-07 06:30N 36°14' E 014°41'3 6.7
2018-Feb-07 05:59N 36°14' E 014°36'3 6.7
2018-Feb-07 05:30N 36°15' E 014°33'3 6.7
2018-Feb-07 05:00N 36°16' E 014°28'3 6.8
2018-Feb-07 04:30N 36°16' E 014°24'3 6.7
2018-Feb-07 03:59N 36°18' E 014°20'3 6.7
2018-Feb-07 03:30N 36°19' E 014°17'3 6.8
2018-Feb-07 03:00N 36°20' E 014°13'4 7.1
2018-Feb-07 02:30N 36°21' E 014°08'3 6.8
2018-Feb-07 02:00N 36°22' E 014°04'3 6.6
2018-Feb-07 01:30N 36°23' E 014°00'3 6.7
2018-Feb-07 01:00N 36°24' E 013°57'3 6.7
2018-Feb-07 00:30N 36°26' E 013°53'3 6.6
2018-Feb-07 00:00N 36°27' E 013°49'3 6.5
2018-Feb-06 23:30N 36°29' E 013°46'3 6.3
2018-Feb-06 23:00N 36°30' E 013°42'3 6.1
2018-Feb-06 22:28N 36°31' E 013°39'  
Track history (hours):
 
Tides and Currents Weather Stations Pressure Air Temp Water Temp Dewpoint Dewpoint Depression Visibility Wind Speed Wind Dir Waves Ship Positions

Fairmount Summit

Last reported at 2018-Feb-16 22:00 UTC. Time now 2018-Feb-22 20:50 UTC.
Position N 37°45' E 024°15'.

Length 75 m; draft 6.2 m.

Type: Tug. MMSI: 245614000.

Date/timePositionNaut miles runAvg speedWind from/ knotsBaromVisibWave heightAir tempDewpointWater temp
2018-Feb-16 22:00N 37°45' E 024°15'  
2018-Feb-12 07:10N 37°28' E 025°48'1 5.9
2018-Feb-12 06:58N 37°27' E 025°49'2 5.0
2018-Feb-12 06:30N 37°25' E 025°51'2 4.0
2018-Feb-12 06:00N 37°24' E 025°53'  
2018-Feb-07 07:05N 36°13' E 014°45'1 6.8
2018-Feb-07 06:59N 36°13' E 014°44'3 6.7
2018-Feb-07 06:30N 36°14' E 014°41'3 6.7
2018-Feb-07 05:59N 36°14' E 014°36'3 6.7
2018-Feb-07 05:30N 36°15' E 014°33'3 6.7
2018-Feb-07 05:00N 36°16' E 014°28'3 6.8
2018-Feb-07 04:30N 36°16' E 014°24'3 6.7
2018-Feb-07 03:59N 36°18' E 014°20'3 6.7
2018-Feb-07 03:30N 36°19' E 014°17'3 6.8
2018-Feb-07 03:00N 36°20' E 014°13'4 7.1
2018-Feb-07 02:30N 36°21' E 014°08'3 6.8
2018-Feb-07 02:00N 36°22' E 014°04'3 6.6
2018-Feb-07 01:30N 36°23' E 014°00'3 6.7
2018-Feb-07 01:00N 36°24' E 013°57'3 6.7
2018-Feb-07 00:30N 36°26' E 013°53'3 6.6
2018-Feb-07 00:00N 36°27' E 013°49'3 6.5
2018-Feb-06 23:30N 36°29' E 013°46'3 6.3
2018-Feb-06 23:00N 36°30' E 013°42'3 6.1
2018-Feb-06 22:28N 36°31' E 013°39'  

Dump ship's entire track history